createdAt,value
2022-08-01T00:00:47.981Z,99308.16
2022-08-01T00:03:21.199Z,99309.11
2022-08-01T00:06:01.827Z,99305.65
2022-08-01T00:08:35.201Z,99309.24
2022-08-01T00:11:10.234Z,99308.49
2022-08-01T00:13:43.511Z,99310.34
2022-08-01T00:16:17.452Z,99308.64
2022-08-01T00:18:50.741Z,99304.34
2022-08-01T00:21:24.201Z,99307.09
2022-08-01T00:23:57.393Z,99301.94
2022-08-01T00:26:30.683Z,99303.73
2022-08-01T00:29:03.809Z,99300.09
2022-08-01T00:31:38.713Z,99298.30
2022-08-01T00:34:12.006Z,99296.50
2022-08-01T00:36:45.271Z,99290.27
2022-08-01T00:39:18.563Z,99294.62
2022-08-01T00:41:59.820Z,99295.46
2022-08-01T00:44:27.008Z,99295.37
2022-08-01T00:47:00.324Z,99298.96
2022-08-01T00:49:33.890Z,99300.80
2022-08-01T00:52:08.778Z,99293.01
2022-08-01T00:54:43.052Z,99294.86
2022-08-01T00:57:16.290Z,99289.70
2022-08-01T00:59:51.507Z,99293.29
2022-08-01T01:02:25.967Z,99303.07
2022-08-01T01:05:00.139Z,99299.81
2022-08-01T01:07:38.646Z,99300.03
2022-08-01T01:10:16.835Z,99302.95
2022-08-01T01:12:54.037Z,99300.63
2022-08-01T01:15:30.797Z,99288.52
2022-08-01T01:18:07.324Z,99289.58
2022-08-01T01:20:43.038Z,99292.30
2022-08-01T01:23:39.705Z,99288.00
2022-08-01T01:26:22.183Z,99289.87
2022-08-01T01:29:13.249Z,99281.94
2022-08-01T01:31:50.710Z,99281.94
2022-08-01T01:34:26.220Z,99285.56
2022-08-01T01:37:02.018Z,99282.16
2022-08-01T01:39:37.909Z,99256.02
2022-08-01T01:42:11.918Z,99273.45
2022-08-01T01:44:48.793Z,99272.67
2022-08-01T01:47:22.779Z,99285.03
2022-08-01T01:49:59.109Z,99281.61
2022-08-01T01:52:36.418Z,99281.69
2022-08-01T01:55:11.561Z,99279.17
2022-08-01T01:57:46.913Z,99278.39
2022-08-01T02:00:20.837Z,99284.56
2022-08-01T02:02:56.606Z,99284.53
2022-08-01T02:05:31.134Z,99278.27
2022-08-01T02:08:06.216Z,99275.59
2022-08-01T02:10:45.322Z,99279.95
2022-08-01T02:13:20.333Z,99276.41
2022-08-01T02:15:59.475Z,99280.77
2022-08-01T02:18:30.043Z,99273.62
2022-08-01T02:21:06.017Z,99279.71
2022-08-01T02:23:41.438Z,99281.49
2022-08-01T02:26:18.542Z,99269.19
2022-08-01T02:28:55.643Z,99271.83
2022-08-01T02:31:31.084Z,99266.55
2022-08-01T02:34:06.944Z,99266.55
2022-08-01T02:36:40.910Z,99271.83
2022-08-01T02:39:16.577Z,99277.95
2022-08-01T02:41:52.479Z,99277.80
2022-08-01T02:44:29.278Z,99274.14
2022-08-01T02:47:05.949Z,99274.95
2022-08-01T02:49:42.527Z,99284.63
2022-08-01T02:52:20.646Z,99275.72
2022-08-01T02:54:57.893Z,99275.47
2022-08-01T02:57:41.500Z,99283.95
2022-08-01T03:00:09.457Z,99273.88
2022-08-01T03:02:45.148Z,99273.68
2022-08-01T03:05:22.394Z,99272.61
2022-08-01T03:08:02.507Z,99271.61
2022-08-01T03:10:35.258Z,99275.95
2022-08-01T03:13:11.214Z,99277.66
2022-08-01T03:15:46.416Z,99282.05
2022-08-01T03:18:22.958Z,99277.66
2022-08-01T03:20:58.958Z,99274.20
2022-08-01T03:23:39.116Z,99281.39
2022-08-01T03:26:13.539Z,99281.48
2022-08-01T03:28:49.028Z,99285.92
2022-08-01T03:31:23.017Z,99279.87
2022-08-01T03:33:56.539Z,99278.98
2022-08-01T03:36:32.738Z,99279.78
2022-08-01T03:39:08.962Z,99277.00
2022-08-01T03:41:45.500Z,99273.50
2022-08-01T03:44:21.493Z,99269.91
2022-08-01T03:46:58.810Z,99268.03
2022-08-01T03:49:35.732Z,99269.82
2022-08-01T03:52:13.742Z,99270.72
2022-08-01T03:54:50.232Z,99265.38
2022-08-01T03:57:36.294Z,99272.32
2022-08-01T04:00:00.835Z,99271.48
2022-08-01T04:02:35.042Z,99274.27
2022-08-01T04:05:10.773Z,99274.20
2022-08-01T04:07:45.764Z,99278.52
2022-08-01T04:10:19.128Z,99271.43
2022-08-01T04:12:52.472Z,99272.14
2022-08-01T04:15:27.845Z,99270.23
2022-08-01T04:18:01.618Z,99269.29
2022-08-01T04:20:34.991Z,99265.80
2022-08-01T04:23:10.903Z,99272.94
2022-08-01T04:25:47.323Z,99276.28
2022-08-01T04:28:22.101Z,99270.75
2022-08-01T04:31:01.799Z,99271.36
2022-08-01T04:33:36.919Z,99272.84
2022-08-01T04:36:13.023Z,99271.78
2022-08-01T04:38:48.254Z,99271.53
2022-08-01T04:41:23.315Z,99273.08
2022-08-01T04:43:56.915Z,99275.52
2022-08-01T04:46:32.218Z,99269.91
2022-08-01T04:49:10.123Z,99267.84
2022-08-01T04:51:55.544Z,99272.12
2022-08-01T04:54:30.905Z,99271.66
2022-08-01T04:57:04.939Z,99274.16
2022-08-01T04:59:44.020Z,99265.17
2022-08-01T05:02:19.388Z,99273.80
2022-08-01T05:04:53.410Z,99271.92
2022-08-01T05:07:27.044Z,99270.98
2022-08-01T05:10:02.192Z,99280.34
2022-08-01T05:12:37.569Z,99279.13
2022-08-01T05:15:15.456Z,99275.47
2022-08-01T05:17:48.162Z,99280.61
2022-08-01T05:20:21.593Z,99272.57
2022-08-01T05:22:54.889Z,99271.38
2022-08-01T05:25:57.787Z,99275.38
2022-08-01T05:28:04.660Z,99264.34
2022-08-01T05:30:38.013Z,99266.91
2022-08-01T05:33:11.697Z,99270.16
2022-08-01T05:35:48.277Z,99268.09
2022-08-01T05:38:20.966Z,99259.80
2022-08-01T05:40:56.416Z,99268.53
2022-08-01T05:43:29.654Z,99270.13
2022-08-01T05:46:03.323Z,99250.34
2022-08-01T05:48:36.613Z,99263.20
2022-08-01T05:51:15.504Z,99260.20
2022-08-01T05:53:49.579Z,99254.44
2022-08-01T05:56:23.550Z,99257.54
2022-08-01T05:58:58.099Z,99258.69
2022-08-01T06:01:34.585Z,99250.70
2022-08-01T06:04:08.451Z,99251.59
2022-08-01T06:06:43.893Z,99249.62
2022-08-01T06:09:17.448Z,99253.57
2022-08-01T06:11:57.391Z,99249.33
2022-08-01T06:14:33.714Z,99248.55
2022-08-01T06:17:21.462Z,99257.28
2022-08-01T06:19:54.491Z,99251.75
2022-08-01T06:22:30.357Z,99252.95
2022-08-01T06:25:05.062Z,99261.50
2022-08-01T06:27:39.195Z,99255.58
2022-08-01T06:30:13.812Z,99257.92
2022-08-01T06:32:47.103Z,99258.95
2022-08-01T06:35:23.815Z,99260.19
2022-08-01T06:37:57.036Z,99271.06
2022-08-01T06:40:34.377Z,99262.89
2022-08-01T06:43:11.396Z,99258.67
2022-08-01T06:45:47.145Z,99259.92
2022-08-01T06:48:20.715Z,99261.09
2022-08-01T06:50:56.594Z,99267.73
2022-08-01T06:53:32.649Z,99262.48
2022-08-01T06:56:05.230Z,99261.44
2022-08-01T06:58:38.753Z,99260.08
2022-08-01T07:01:13.306Z,99254.06
2022-08-01T07:03:54.328Z,99256.61
2022-08-01T07:06:28.477Z,99259.95
2022-08-01T07:09:08.458Z,99265.12
2022-08-01T07:11:38.338Z,99255.69
2022-08-01T07:14:12.914Z,99262.32
2022-08-01T07:16:46.604Z,99268.98
2022-08-01T07:19:22.030Z,99267.58
2022-08-01T07:21:55.605Z,99267.46
2022-08-01T07:24:30.306Z,99270.27
2022-08-01T07:27:23.899Z,99264.08
2022-08-01T07:29:59.140Z,99268.01
2022-08-01T07:32:36.001Z,99270.25
2022-08-01T07:35:11.029Z,99263.13
2022-08-01T07:37:48.592Z,99263.94
2022-08-01T07:40:20.058Z,99266.01
2022-08-01T07:42:54.055Z,99265.87
2022-08-01T07:46:13.553Z,99259.55
2022-08-01T07:48:42.343Z,99261.72
2022-08-01T07:51:15.769Z,99257.27
2022-08-01T07:53:49.169Z,99258.97
2022-08-01T07:56:24.161Z,99258.70
2022-08-01T07:58:57.773Z,99250.70
2022-08-01T08:01:31.331Z,99244.02
2022-08-01T08:04:04.757Z,99249.30
2022-08-01T08:06:38.130Z,99253.80
2022-08-01T08:09:11.546Z,99253.55
2022-08-01T08:11:48.183Z,99247.05
2022-08-01T08:14:32.302Z,99253.25
2022-08-01T08:16:59.134Z,99253.01
2022-08-01T08:19:38.006Z,99252.69
2022-08-01T08:22:12.167Z,99261.55
2022-08-01T08:24:47.074Z,99253.59
2022-08-01T08:27:20.809Z,99254.77
2022-08-01T08:30:02.352Z,99253.87
2022-08-01T08:32:50.622Z,99251.02
2022-08-01T08:35:40.304Z,99244.56
2022-08-01T08:37:59.673Z,99245.40
2022-08-01T08:40:34.700Z,99249.33
2022-08-01T08:43:09.448Z,99245.89
2022-08-01T08:45:59.817Z,99245.58
2022-08-01T08:48:18.947Z,99241.98
2022-08-01T08:50:54.732Z,99230.23
2022-08-01T08:53:34.712Z,99239.84
2022-08-01T08:56:08.475Z,99242.31
2022-08-01T08:58:43.597Z,99243.23
2022-08-01T09:01:18.766Z,99242.08
2022-08-01T09:03:52.509Z,99229.84
2022-08-01T09:06:25.912Z,99231.55
2022-08-01T09:09:01.512Z,99240.05
2022-08-01T09:14:21.809Z,99234.70
2022-08-01T09:17:06.798Z,99237.52
2022-08-01T09:19:42.197Z,99228.41
2022-08-01T09:22:19.373Z,99228.28
2022-08-01T09:25:04.705Z,99233.50
2022-08-01T09:27:44.124Z,99223.88
2022-08-01T09:30:23.531Z,99236.41
2022-08-01T09:33:06.269Z,99221.97
2022-08-01T09:35:43.767Z,99222.02
2022-08-01T09:38:18.017Z,99231.48
2022-08-01T09:40:58.643Z,99222.10
2022-08-01T09:43:37.660Z,99227.34
2022-08-01T09:46:14.158Z,99224.53
2022-08-01T09:49:07.464Z,99226.20
2022-08-01T09:51:59.422Z,99222.38
2022-08-01T09:54:21.261Z,99222.42
2022-08-01T09:57:16.729Z,99215.03
2022-08-01T10:00:00.753Z,99213.52
2022-08-01T10:02:37.143Z,99206.25
2022-08-01T10:05:20.818Z,99220.03
2022-08-01T10:08:00.841Z,99212.70
2022-08-01T10:10:37.483Z,99195.55
2022-08-01T10:13:13.282Z,99209.05
2022-08-01T10:15:49.489Z,99203.53
2022-08-01T10:18:26.267Z,99210.87
2022-08-01T10:21:03.032Z,99204.31
2022-08-01T10:23:41.402Z,99208.08
2022-08-01T10:26:16.370Z,99203.03
2022-08-01T10:28:52.250Z,99198.48
2022-08-01T10:31:32.410Z,99207.08
2022-08-01T10:34:08.140Z,99205.74
2022-08-01T10:36:41.247Z,99204.88
2022-08-01T10:39:20.036Z,99207.77
2022-08-01T10:41:51.040Z,99207.97
2022-08-01T10:44:28.618Z,99216.45
2022-08-01T10:47:10.113Z,99206.90
2022-08-01T10:49:46.380Z,99196.96
2022-08-01T10:52:22.340Z,99201.92
2022-08-01T10:55:03.536Z,99202.46
2022-08-01T10:57:52.686Z,99205.66
2022-08-01T11:00:24.106Z,99201.30
2022-08-01T11:03:04.605Z,99201.30
2022-08-01T11:05:38.782Z,99199.36
2022-08-01T11:08:16.148Z,99193.67
2022-08-01T11:10:49.800Z,99194.23
2022-08-01T11:13:58.499Z,99190.17
2022-08-01T11:16:37.367Z,99190.95
2022-08-01T11:19:12.025Z,99182.30
2022-08-01T11:22:05.450Z,99184.23
2022-08-01T11:24:59.292Z,99191.48
2022-08-01T11:27:35.422Z,99179.74
2022-08-01T11:30:30.860Z,99173.16
2022-08-01T11:33:11.019Z,99172.88
2022-08-01T11:35:40.394Z,99167.53
2022-08-01T11:38:29.591Z,99178.83
2022-08-01T11:41:15.642Z,99175.12
2022-08-01T11:44:02.921Z,99168.32
2022-08-01T11:46:51.953Z,99165.88
2022-08-01T11:49:35.464Z,99166.87
2022-08-01T11:52:11.322Z,99166.81
2022-08-01T11:54:47.853Z,99169.44
2022-08-01T11:57:24.442Z,99152.27
2022-08-01T12:00:03.675Z,99155.48
2022-08-01T12:02:37.987Z,99159.15
2022-08-01T12:05:14.341Z,99149.75
2022-08-01T12:07:53.416Z,99150.55
2022-08-01T12:10:33.960Z,99158.02
2022-08-01T12:13:09.558Z,99153.92
2022-08-01T12:15:44.745Z,99154.13
2022-08-01T12:18:18.291Z,99150.92
2022-08-01T12:20:57.156Z,99147.22
2022-08-01T12:23:26.742Z,99146.66
2022-08-01T12:26:01.363Z,99144.98
2022-08-01T12:28:42.461Z,99149.91
2022-08-01T12:31:15.690Z,99152.52
2022-08-01T12:33:49.128Z,99157.09
2022-08-01T12:36:32.401Z,99149.77
2022-08-01T12:39:06.192Z,99153.44
2022-08-01T12:41:40.246Z,99149.28
2022-08-01T12:44:17.998Z,99153.44
2022-08-01T12:46:51.468Z,99142.77
2022-08-01T12:49:27.800Z,99139.95
2022-08-01T12:52:01.442Z,99143.62
2022-08-01T12:54:56.683Z,99134.16
2022-08-01T12:57:30.125Z,99138.45
2022-08-01T13:00:16.173Z,99133.83
2022-08-01T13:02:50.560Z,99134.08
2022-08-01T13:05:26.843Z,99128.91
2022-08-01T13:08:04.373Z,99139.70
2022-08-01T13:10:36.425Z,99134.08
2022-08-01T13:13:11.107Z,99126.34
2022-08-01T13:15:47.171Z,99125.44
2022-08-01T13:18:31.617Z,99104.80
2022-08-01T13:21:18.971Z,99113.04
2022-08-01T13:24:08.229Z,99114.44
2022-08-01T13:26:46.758Z,99113.94
2022-08-01T13:29:21.404Z,99108.19
2022-08-01T13:31:54.712Z,99112.22
2022-08-01T13:34:34.988Z,99111.55
2022-08-01T13:37:08.995Z,99110.17
2022-08-01T13:39:45.290Z,99108.69
2022-08-01T13:42:19.926Z,99119.30
2022-08-01T13:44:54.652Z,99113.11
2022-08-01T13:47:31.729Z,99111.05
2022-08-01T13:50:04.285Z,99112.67
2022-08-01T13:52:37.705Z,99110.48
2022-08-01T13:55:11.991Z,99100.20
2022-08-01T13:57:46.358Z,99111.69
2022-08-01T14:00:20.319Z,99106.56
2022-08-01T14:02:53.907Z,99105.77
2022-08-01T14:05:27.191Z,99110.88
2022-08-01T14:08:00.522Z,99109.97
2022-08-01T14:10:34.733Z,99112.49
2022-08-01T14:13:11.772Z,99114.69
2022-08-01T14:15:50.331Z,99104.16
2022-08-01T14:18:23.503Z,99104.80
2022-08-01T14:21:05.271Z,99097.48
2022-08-01T14:23:36.523Z,99114.49
2022-08-01T14:26:12.784Z,99111.00
2022-08-01T14:28:46.152Z,99113.70
2022-08-01T14:31:19.432Z,99111.86
2022-08-01T14:33:52.865Z,99110.63
2022-08-01T14:36:30.811Z,99100.62
2022-08-01T14:39:01.571Z,99110.45
2022-08-01T14:41:35.033Z,99105.08
2022-08-01T14:44:10.121Z,99104.83
2022-08-01T14:46:57.731Z,99101.38
2022-08-01T14:49:20.847Z,99110.67
2022-08-01T14:51:55.455Z,99107.30
2022-08-01T14:54:29.478Z,99099.59
2022-08-01T14:57:02.966Z,99096.47
2022-08-01T14:59:37.123Z,99107.44
2022-08-01T15:02:12.925Z,99094.29
2022-08-01T15:04:46.557Z,99104.25
2022-08-01T15:07:21.619Z,99093.94
2022-08-01T15:09:55.971Z,99095.28
2022-08-01T15:12:44.505Z,99095.05
2022-08-01T15:15:05.099Z,99088.71
2022-08-01T15:17:39.814Z,99087.86
2022-08-01T15:20:14.311Z,99081.89
2022-08-01T15:22:49.241Z,99091.31
2022-08-01T15:25:24.954Z,99092.13
2022-08-01T15:28:01.522Z,99084.34
2022-08-01T15:30:44.783Z,99090.42
2022-08-01T15:33:20.728Z,99084.06
2022-08-01T15:35:56.409Z,99090.76
2022-08-01T15:38:37.167Z,99084.70
2022-08-01T15:41:11.619Z,99083.84
2022-08-01T15:43:46.347Z,99086.03
2022-08-01T15:46:24.380Z,99077.41
2022-08-01T15:48:58.957Z,99084.33
2022-08-01T15:51:37.513Z,99084.91
2022-08-01T15:54:14.756Z,99077.42
2022-08-01T15:56:51.608Z,99076.36
2022-08-01T15:59:23.736Z,99077.98
2022-08-01T16:01:56.943Z,99075.09
2022-08-01T16:04:31.499Z,99073.61
2022-08-01T16:07:06.369Z,99072.55
2022-08-01T16:09:42.754Z,99073.34
2022-08-01T16:12:16.823Z,99076.66
2022-08-01T16:14:50.618Z,99076.59
2022-08-01T16:17:24.121Z,99079.38
2022-08-01T16:19:57.414Z,99066.43
2022-08-01T16:22:30.930Z,99067.73
2022-08-01T16:25:06.040Z,99077.78
2022-08-01T16:27:39.389Z,99067.23
2022-08-01T16:30:14.145Z,99077.45
2022-08-01T16:32:52.090Z,99083.94
2022-08-01T16:35:24.450Z,99081.27
2022-08-01T16:37:57.847Z,99079.91
2022-08-01T16:40:31.148Z,99087.75
2022-08-01T16:43:08.898Z,99085.84
2022-08-01T16:45:45.807Z,99087.30
2022-08-01T16:48:24.546Z,99092.36
2022-08-01T16:51:04.764Z,99088.45
2022-08-01T16:53:39.031Z,99089.72
2022-08-01T16:56:16.731Z,99086.52
2022-08-01T16:58:51.993Z,99093.12
2022-08-01T17:04:19.397Z,99100.77
2022-08-01T17:07:02.156Z,99089.39
2022-08-01T17:09:39.888Z,99097.56
2022-08-01T17:15:09.921Z,99094.50
2022-08-01T17:17:54.445Z,99100.09
2022-08-01T17:20:31.095Z,99100.12
2022-08-01T17:23:05.778Z,99095.13
2022-08-01T17:28:34.713Z,99094.72
2022-08-01T17:31:17.612Z,99102.00
2022-08-01T17:33:59.426Z,99099.80
2022-08-01T17:36:37.390Z,99096.81
2022-08-01T17:39:23.490Z,99104.42
2022-08-01T17:42:11.348Z,99108.40
2022-08-01T17:44:58.836Z,99103.31
2022-08-01T17:47:50.479Z,99105.89
2022-08-01T17:50:14.027Z,99110.42
2022-08-01T17:52:51.931Z,99106.19
2022-08-01T17:55:55.657Z,99121.38
2022-08-01T17:58:04.248Z,99116.13
2022-08-01T18:00:45.138Z,99112.61
2022-08-01T18:06:24.348Z,99118.36
2022-08-01T18:09:09.556Z,99123.13
2022-08-01T18:14:40.702Z,99126.27
2022-08-01T18:17:33.071Z,99117.14
2022-08-01T18:25:58.781Z,99130.59
2022-08-01T18:28:38.012Z,99123.20
2022-08-01T18:31:11.378Z,99118.22
2022-08-01T18:33:49.261Z,99127.50
2022-08-01T18:36:32.263Z,99132.16
2022-08-01T18:41:48.309Z,99129.49
2022-08-01T18:44:25.528Z,99131.06
2022-08-01T18:47:01.022Z,99136.53
2022-08-01T18:49:35.789Z,99133.06
2022-08-01T18:52:12.122Z,99131.46
2022-08-01T18:57:42.822Z,99134.27
2022-08-01T19:00:18.387Z,99128.06
2022-08-01T19:02:53.917Z,99127.98
2022-08-01T19:05:29.059Z,99133.31
2022-08-01T19:08:10.628Z,99133.20
2022-08-01T19:10:46.837Z,99140.22
2022-08-01T19:13:40.173Z,99139.19
2022-08-01T19:16:32.499Z,99111.43
2022-08-01T19:22:02.203Z,99139.30
2022-08-01T19:24:40.424Z,99140.30
2022-08-01T19:27:20.599Z,99143.84
2022-08-01T19:30:00.536Z,99141.18
2022-08-01T19:35:36.770Z,99150.33
2022-08-01T19:38:13.408Z,99145.26
2022-08-01T19:40:50.504Z,99145.33
2022-08-01T19:43:24.153Z,99149.05
2022-08-01T19:46:03.259Z,99140.50
2022-08-01T19:48:39.574Z,99141.52
2022-08-01T19:51:22.277Z,99142.58
2022-08-01T19:53:58.761Z,99140.13
2022-08-01T19:56:39.285Z,99147.28
2022-08-01T19:59:23.477Z,99149.16
2022-08-01T20:02:03.449Z,99145.69
2022-08-01T20:04:42.421Z,99146.73
2022-08-01T20:07:23.777Z,99147.66
2022-08-01T20:09:59.595Z,99143.33
2022-08-01T20:12:55.401Z,99137.27
2022-08-01T20:15:45.848Z,99144.45
2022-08-01T20:18:21.597Z,99150.00
2022-08-01T20:20:57.501Z,99148.39
2022-08-01T20:26:26.115Z,99153.25
2022-08-01T20:29:03.157Z,99154.52
2022-08-01T20:31:43.011Z,99149.75
2022-08-01T20:34:17.284Z,99151.02
2022-08-01T20:36:54.709Z,99154.70
2022-08-01T20:39:29.855Z,99161.19
2022-08-01T20:42:05.023Z,99158.05
2022-08-01T20:44:40.490Z,99163.74
2022-08-01T20:47:14.481Z,99161.30
2022-08-01T20:49:48.075Z,99165.84
2022-08-01T20:52:22.978Z,99165.95
2022-08-01T20:54:57.736Z,99171.27
2022-08-01T20:57:33.995Z,99170.37
2022-08-01T21:00:10.116Z,99173.09
2022-08-01T21:02:48.939Z,99173.20
2022-08-01T21:05:29.483Z,99172.27
2022-08-01T21:08:05.891Z,99177.56
2022-08-01T21:10:41.178Z,99172.38
2022-08-01T21:13:20.984Z,99177.95
2022-08-01T21:16:23.069Z,99174.38
2022-08-01T21:18:34.965Z,99175.35
2022-08-01T21:21:08.375Z,99173.73
2022-08-01T21:23:46.750Z,99172.13
2022-08-01T21:26:22.182Z,99173.13
2022-08-01T21:28:59.344Z,99173.06
2022-08-01T21:31:40.368Z,99174.86
2022-08-01T21:37:10.978Z,99171.92
2022-08-01T21:39:46.755Z,99175.72
2022-08-01T21:42:25.796Z,99176.38
2022-08-01T21:45:01.573Z,99173.61
2022-08-01T21:47:37.134Z,99173.61
2022-08-01T21:50:11.269Z,99169.53
2022-08-01T21:52:47.537Z,99164.51
2022-08-01T21:55:35.723Z,99165.59
2022-08-01T21:58:16.568Z,99168.49
2022-08-01T22:00:53.257Z,99167.06
2022-08-01T22:03:28.739Z,99167.30
2022-08-01T22:06:03.635Z,99180.61
2022-08-01T22:08:39.369Z,99178.09
2022-08-01T22:11:15.408Z,99174.66
2022-08-01T22:13:48.516Z,99172.97
2022-08-01T22:16:22.620Z,99175.63
2022-08-01T22:18:56.969Z,99178.20
2022-08-01T22:21:31.355Z,99175.49
2022-08-01T22:24:06.459Z,99178.14
2022-08-01T22:26:41.927Z,99172.23
2022-08-01T22:29:18.464Z,99169.70
2022-08-01T22:31:54.924Z,99170.56
2022-08-01T22:34:28.143Z,99174.05
2022-08-01T22:37:01.760Z,99171.21
2022-08-01T22:39:38.355Z,99174.72
2022-08-01T22:42:12.731Z,99183.73
2022-08-01T22:44:52.060Z,99177.52
2022-08-01T22:47:31.158Z,99179.23
2022-08-01T22:50:06.912Z,99182.90
2022-08-01T22:55:26.009Z,99179.16
2022-08-01T22:58:03.605Z,99170.67
2022-08-01T23:00:39.069Z,99174.05
2022-08-01T23:03:15.837Z,99179.16
2022-08-01T23:05:52.762Z,99167.55
2022-08-01T23:08:27.083Z,99165.86
2022-08-01T23:11:02.396Z,99165.08
2022-08-01T23:13:35.819Z,99163.34
2022-08-01T23:16:09.235Z,99155.39
2022-08-01T23:18:44.510Z,99151.94
2022-08-01T23:21:20.577Z,99147.50
2022-08-01T23:23:55.330Z,99157.19
2022-08-01T23:26:30.509Z,99150.92
2022-08-01T23:29:03.749Z,99153.57
2022-08-01T23:32:00.657Z,99143.99
2022-08-01T23:34:15.403Z,99140.67
2022-08-01T23:36:46.722Z,99145.38
2022-08-01T23:39:19.985Z,99145.72
2022-08-01T23:42:07.700Z,99147.73
2022-08-01T23:44:27.989Z,99144.56
2022-08-01T23:47:01.352Z,99146.54
2022-08-01T23:49:34.941Z,99144.17
2022-08-01T23:52:10.080Z,99141.57
2022-08-01T23:54:43.859Z,99141.47
2022-08-01T23:57:18.294Z,99143.04
2022-08-01T23:59:52.969Z,99144.78
